Time;durP1;ratioP1;P1;durP2;ratioP2;P2;SDS_P1;SDS_P2;PMS_P1;PMS_P2;Temp;Humidity;BMP_temperature;BMP_pressure;BME280_temperature;BME280_humidity;BME280_pressure;Samples;Min_cycle;Max_cycle;Signal;HPM_P1;HPM_P2
2022/06/27 00:01:41;;;;;;;1.15;1.00;;;;;;;23.51;53.82;93237.34;4663076;30;20055;-93
2022/06/27 00:04:08;;;;;;;1.17;1.08;;;;;;;23.49;53.76;93240.66;4672759;30;20053;-93
2022/06/27 00:06:35;;;;;;;1.75;1.00;;;;;;;23.53;53.63;93245.84;4664648;30;20034;-92
2022/06/27 00:09:02;;;;;;;1.55;1.00;;;;;;;23.51;53.99;93229.06;4658323;30;20039;-93
2022/06/27 00:11:29;;;;;;;0.80;0.80;;;;;;;23.52;53.93;93244.38;4594233;31;20048;-93
2022/06/27 00:13:55;;;;;;;1.20;1.10;;;;;;;23.51;53.79;93232.56;4594729;31;20079;-93
2022/06/27 00:16:23;;;;;;;1.30;0.95;;;;;;;23.50;53.70;93227.59;4582665;31;20045;-93
2022/06/27 00:18:51;;;;;;;0.60;0.60;;;;;;;23.53;54.08;93237.56;4589312;31;20497;-93
2022/06/27 00:21:18;;;;;;;0.70;0.70;;;;;;;23.51;53.80;93243.59;4588217;31;20571;-93
2022/06/27 00:23:47;;;;;;;0.82;0.80;;;;;;;23.51;53.86;93249.13;4596428;31;20120;-93
2022/06/27 00:26:14;;;;;;;1.13;0.93;;;;;;;23.50;53.83;93241.38;4612552;30;20199;-93
2022/06/27 00:28:49;;;;;;;1.20;1.10;;;;;;;23.49;53.87;93250.94;4646347;30;20043;-93
2022/06/27 00:31:16;;;;;;;1.23;0.98;;;;;;;23.49;53.80;93235.13;4641809;30;20048;-93
2022/06/27 00:33:43;;;;;;;1.35;0.88;;;;;;;23.49;54.09;93248.94;4645567;30;20094;-93
2022/06/27 00:36:14;;;;;;;1.10;0.80;;;;;;;23.48;53.85;93239.19;4634909;30;20058;-93
2022/06/27 00:38:41;;;;;;;1.13;0.80;;;;;;;23.49;53.92;93259.97;4649686;30;20054;-92
2022/06/27 00:41:11;;;;;;;1.10;0.90;;;;;;;23.49;54.01;93246.16;4686592;30;20061;-93
2022/06/27 00:43:43;;;;;;;1.10;1.00;;;;;;;23.47;53.69;93250.75;4635468;30;20047;-93
2022/06/27 00:46:10;;;;;;;1.77;1.00;;;;;;;23.48;53.56;93252.22;4630059;31;20051;-93
2022/06/27 00:48:38;;;;;;;0.95;0.90;;;;;;;23.48;53.68;93249.47;4629861;31;20045;-93
2022/06/27 00:51:05;;;;;;;1.10;0.90;;;;;;;23.49;54.14;93257.22;4629741;31;20051;-93
2022/06/27 00:53:35;;;;;;;1.15;1.00;;;;;;;23.48;53.58;93252.97;4643352;30;20054;-92
2022/06/27 00:56:00;;;;;;;1.10;0.80;;;;;;;23.48;53.89;93250.22;4643178;30;20082;-93
2022/06/27 00:58:27;;;;;;;1.42;0.98;;;;;;;23.47;53.95;93251.50;4629717;31;20050;-92
2022/06/27 01:00:54;;;;;;;1.00;0.93;;;;;;;23.47;53.78;93253.53;4620067;30;20050;-93
2022/06/27 01:03:20;;;;;;;1.77;0.98;;;;;;;23.47;53.87;93253.53;4640843;30;20054;-93
2022/06/27 01:05:51;;;;;;;1.30;0.95;;;;;;;23.47;53.67;93239.72;4666280;30;20491;-93
2022/06/27 01:08:20;;;;;;;1.08;0.98;;;;;;;23.48;53.53;93247.44;4648148;30;20073;-93
2022/06/27 01:10:46;;;;;;;1.30;1.20;;;;;;;23.47;53.75;93245.25;4650950;30;20055;-93
2022/06/27 01:13:13;;;;;;;1.33;1.00;;;;;;;23.45;53.82;93229.22;4666190;30;20070;-92
2022/06/27 01:15:42;;;;;;;1.10;0.90;;;;;;;23.46;53.65;93229.97;4697380;30;20049;-93
2022/06/27 01:18:10;;;;;;;1.30;1.20;;;;;;;23.46;53.58;93222.44;4716789;30;20619;-93
2022/06/27 01:20:37;;;;;;;2.13;1.20;;;;;;;23.44;53.52;93219.47;4687236;30;20049;-92
2022/06/27 01:23:03;;;;;;;2.50;1.20;;;;;;;23.47;53.60;93231.44;4708480;30;20037;-92
2022/06/27 01:25:32;;;;;;;1.00;0.82;;;;;;;23.45;53.55;93218.19;4703020;30;20056;-93
2022/06/27 01:28:04;;;;;;;1.10;0.90;;;;;;;23.43;53.75;93226.28;4716504;30;20032;-93
2022/06/27 01:30:38;;;;;;;1.02;0.98;;;;;;;23.43;53.63;93220.03;4716536;30;20124;-93
2022/06/27 01:33:15;;;;;;;1.80;1.35;;;;;;;23.43;53.51;93214.50;4706204;30;20044;-92
2022/06/27 01:35:42;;;;;;;1.08;0.98;;;;;;;23.46;53.73;93227.22;4701951;30;20107;-93
2022/06/27 01:38:13;;;;;;;1.38;1.27;;;;;;;23.46;53.40;93218.94;4696734;30;20060;-93
2022/06/27 01:40:41;;;;;;;1.20;1.10;;;;;;;23.45;53.80;93214.69;4704387;30;20527;-92
2022/06/27 01:43:07;;;;;;;1.00;0.80;;;;;;;23.45;53.65;93211.94;4711857;30;20048;-93
2022/06/27 01:45:33;;;;;;;1.70;0.90;;;;;;;23.44;53.65;93210.47;4708354;30;20185;-93
2022/06/27 01:48:08;;;;;;;0.85;0.80;;;;;;;23.42;53.82;93211.00;4666777;30;20108;-92
2022/06/27 01:50:34;;;;;;;1.85;1.10;;;;;;;23.43;53.73;93209.00;4648665;30;20042;-93
2022/06/27 01:53:01;;;;;;;0.88;0.85;;;;;;;23.43;53.91;93214.50;4662770;30;20049;-93
2022/06/27 01:55:27;;;;;;;1.05;0.95;;;;;;;23.42;53.83;93215.78;4653407;30;20046;-93
2022/06/27 01:57:56;;;;;;;1.23;1.00;;;;;;;23.42;53.73;93216.53;4654703;30;20050;-93
2022/06/27 02:00:26;;;;;;;1.55;0.98;;;;;;;23.40;53.94;93215.59;4649270;30;20046;-93
2022/06/27 02:02:55;;;;;;;0.88;0.80;;;;;;;23.43;53.80;93211.75;4666652;30;20071;-93
2022/06/27 02:05:21;;;;;;;1.10;1.00;;;;;;;23.43;53.66;93214.50;4737434;30;20044;-92
2022/06/27 02:07:47;;;;;;;0.98;0.90;;;;;;;23.40;53.87;93223.88;4738443;30;20134;-93
2022/06/27 02:10:14;;;;;;;1.42;0.82;;;;;;;23.42;53.67;93218.56;4717047;30;20037;-93
2022/06/27 02:12:50;;;;;;;1.65;1.13;;;;;;;23.41;53.81;93208.81;4707140;30;20046;-93
2022/06/27 02:15:16;;;;;;;1.45;1.33;;;;;;;23.41;53.74;93225.34;4697563;30;20049;-93
2022/06/27 02:17:42;;;;;;;1.25;0.90;;;;;;;23.39;53.67;93236.94;4713327;30;20045;-93
2022/06/27 02:20:11;;;;;;;1.67;1.20;;;;;;;23.40;53.57;93232.88;4712853;30;20057;-93
2022/06/27 02:22:36;;;;;;;0.70;0.70;;;;;;;23.40;53.67;93224.63;4733040;30;20043;-93
2022/06/27 02:25:08;;;;;;;0.90;0.80;;;;;;;23.41;53.52;93214.31;4717123;30;20045;-93
2022/06/27 02:27:38;;;;;;;1.00;0.90;;;;;;;23.40;53.65;93207.31;4704822;30;20060;-93
2022/06/27 02:30:04;;;;;;;1.45;0.93;;;;;;;23.40;53.90;93207.31;4735173;30;20054;-93
2022/06/27 02:32:30;;;;;;;0.93;0.93;;;;;;;23.39;53.62;93206.59;4741121;30;20075;-93
2022/06/27 02:34:57;;;;;;;1.00;0.90;;;;;;;23.39;53.67;93205.84;4717526;30;20041;-93
2022/06/27 02:37:23;;;;;;;1.10;0.82;;;;;;;23.40;53.61;93199.78;4708972;30;20041;-92
2022/06/27 02:39:50;;;;;;;1.25;1.15;;;;;;;23.40;53.63;93197.03;4713826;30;20121;-93
2022/06/27 02:42:16;;;;;;;1.20;0.98;;;;;;;23.38;53.70;93194.09;4704650;30;20040;-93
2022/06/27 02:44:43;;;;;;;0.95;0.80;;;;;;;23.40;53.88;93199.78;4745008;30;20048;-92
2022/06/27 02:47:09;;;;;;;1.15;0.98;;;;;;;23.38;53.66;93202.38;4757658;30;20054;-93
2022/06/27 02:49:34;;;;;;;0.98;0.88;;;;;;;23.38;53.78;93194.09;4750342;30;20069;-93
2022/06/27 02:52:09;;;;;;;1.33;0.90;;;;;;;23.38;53.81;93193.38;4750110;30;20040;-92
2022/06/27 02:55:04;;;;;;;1.15;0.90;;;;;;;23.37;53.95;93200.91;4754029;30;20036;-93
2022/06/27 02:57:56;;;;;;;0.73;0.70;;;;;;;23.36;53.63;93198.69;4746579;30;20589;-93
2022/06/27 03:00:38;;;;;;;1.05;0.90;;;;;;;23.36;53.83;93204.94;4739506;30;20036;-92
2022/06/27 03:03:05;;;;;;;1.00;0.90;;;;;;;23.38;53.77;93205.16;4754121;30;20118;-93
2022/06/27 03:05:32;;;;;;;0.95;0.88;;;;;;;23.34;53.77;93198.50;4735902;30;20047;-93
2022/06/27 03:08:01;;;;;;;1.65;1.05;;;;;;;23.35;53.59;93192.44;4698820;30;20077;-92
2022/06/27 03:10:29;;;;;;;1.17;0.80;;;;;;;23.35;53.75;93205.50;4670048;30;20050;-93
2022/06/27 03:12:56;;;;;;;1.00;0.90;;;;;;;23.36;53.74;93201.47;4704985;30;20136;-93
2022/06/27 03:15:23;;;;;;;1.00;0.90;;;;;;;23.37;53.57;93209.19;4701312;30;20489;-93
2022/06/27 03:17:50;;;;;;;0.70;0.70;;;;;;;23.36;53.84;93209.72;4701268;30;20041;-92
2022/06/27 03:20:17;;;;;;;1.02;0.90;;;;;;;23.36;53.83;93201.47;4697237;30;20048;-92
2022/06/27 03:22:43;;;;;;;1.23;1.00;;;;;;;23.35;53.71;93197.97;4716651;30;20037;-93
2022/06/27 03:25:09;;;;;;;1.63;1.30;;;;;;;23.37;53.83;93191.91;4702296;30;20048;-93
2022/06/27 03:27:37;;;;;;;1.10;1.00;;;;;;;23.36;53.55;93199.44;4697247;30;20052;-93
2022/06/27 03:30:05;;;;;;;0.70;0.70;;;;;;;23.38;53.41;93198.88;4703423;30;20043;-93
2022/06/27 03:32:33;;;;;;;0.65;0.65;;;;;;;23.38;53.57;93196.88;4716574;30;20607;-93
2022/06/27 03:35:00;;;;;;;1.10;1.00;;;;;;;23.39;53.74;93197.56;4681224;30;20045;-93
2022/06/27 03:37:32;;;;;;;0.90;0.77;;;;;;;23.41;53.23;93209.53;4683767;30;20045;-93
2022/06/27 03:40:02;;;;;;;1.10;1.00;;;;;;;23.43;53.38;93209.00;4748495;30;20082;-93
2022/06/27 03:42:36;;;;;;;;;;;;;;;23.46;53.35;93205.13;4718909;30;20055;-93
2022/06/27 03:45:03;;;;;;;2.35;1.17;;;;;;;23.46;53.35;93216.91;4730301;30;19925;-93
2022/06/27 03:47:46;;;;;;;2.20;1.00;;;;;;;23.47;53.59;93214.88;4696901;30;20049;-91
2022/06/27 03:50:13;;;;;;;2.33;0.98;;;;;;;23.49;53.34;93215.09;4718448;30;20069;-91
2022/06/27 03:52:41;;;;;;;1.02;0.73;;;;;;;23.48;53.33;93216.38;4705852;30;20203;-94
2022/06/27 03:55:09;;;;;;;1.35;0.90;;;;;;;23.51;53.29;93209.75;4697495;30;20038;-94
2022/06/27 03:57:39;;;;;;;2.45;1.08;;;;;;;23.49;53.45;93209.56;4686442;30;20050;-92
2022/06/27 04:00:10;;;;;;;8.35;2.13;;;;;;;23.47;53.34;93220.41;4683624;30;20053;-93
2022/06/27 04:02:36;;;;;;;3.70;1.70;;;;;;;23.42;53.13;93215.78;4657507;30;20053;-93
2022/06/27 04:05:03;;;;;;;4.13;2.58;;;;;;;23.38;52.61;93215.44;4648058;30;20038;-94
2022/06/27 04:08:01;;;;;;;7.22;2.80;;;;;;;23.35;52.84;93233.09;4676872;30;20469;-96
2022/06/27 04:10:27;;;;;;;25.30;4.72;;;;;;;23.33;52.37;93224.63;4635330;30;20035;-95
2022/06/27 04:13:13;;;;;;;13.05;4.18;;;;;;;23.34;52.55;93232.34;4639097;30;20227;-95
2022/06/27 04:19:36;;;;;;;13.85;7.00;;;;;;;23.35;52.35;93242.09;4959309;24;20059;-95
2022/06/27 04:22:04;;;;;;;9.75;6.57;;;;;;;23.33;52.18;93224.63;4777970;29;20043;-94
2022/06/27 04:24:41;;;;;;;22.50;7.47;;;;;;;23.38;52.20;93229.22;4735731;30;20130;-93
2022/06/27 04:32:28;;;;;;;6.25;3.65;;;;;;;23.37;52.46;93236.03;4801729;24;20437;-95
2022/06/27 04:42:41;;;;;;;8.25;6.30;;;;;;;23.35;54.86;93238.59;4738116;30;20060;-93
2022/06/27 04:45:13;;;;;;;9.15;7.63;;;;;;;23.31;54.37;93235.47;4701728;30;20025;-96
2022/06/27 04:47:47;;;;;;;7.18;4.78;;;;;;;23.33;54.88;93239.16;4723945;30;20029;-93
2022/06/27 04:50:28;;;;;;;6.95;4.95;;;;;;;23.33;53.50;93241.16;4694004;30;20032;-95
2022/06/27 04:52:55;;;;;;;5.68;3.90;;;;;;;23.28;54.38;93242.81;4739856;30;20089;-93
2022/06/27 04:55:22;;;;;;;7.72;4.15;;;;;;;23.31;54.25;93246.50;4684862;30;20234;-91
2022/06/27 04:57:55;;;;;;;6.43;3.75;;;;;;;23.30;54.69;93250.53;4679860;30;20033;-93
2022/06/27 05:00:20;;;;;;;15.75;4.50;;;;;;;23.20;55.70;93245.53;4707646;30;20048;-94
2022/06/27 05:02:47;;;;;;;12.55;4.95;;;;;;;23.21;53.76;93244.25;4702678;30;20036;-95
2022/06/27 05:05:12;;;;;;;20.70;7.07;;;;;;;23.28;53.52;93244.81;4688005;30;20089;-91
2022/06/27 05:07:38;;;;;;;16.88;5.38;;;;;;;23.13;54.07;93251.03;4700116;30;20025;-92
2022/06/27 05:10:05;;;;;;;8.75;4.05;;;;;;;23.12;54.18;93244.03;4698458;30;20840;-94
2022/06/27 05:12:45;;;;;;;10.27;4.22;;;;;;;23.05;53.99;93251.00;4699989;30;20044;-94
2022/06/27 05:15:12;;;;;;;8.07;3.95;;;;;;;23.13;53.74;93243.50;4709305;30;20024;-92
2022/06/27 05:17:37;;;;;;;20.27;5.32;;;;;;;23.25;53.87;93254.91;4712260;30;20041;-94
2022/06/27 05:20:05;;;;;;;17.50;5.38;;;;;;;23.23;53.87;93247.19;4700616;30;20033;-95
2022/06/27 05:22:32;;;;;;;11.05;4.10;;;;;;;23.21;53.82;93247.00;4703967;30;20033;-95
2022/06/27 05:24:58;;;;;;;15.20;5.03;;;;;;;23.18;54.20;93244.59;4696732;30;20029;-93
2022/06/27 05:27:24;;;;;;;21.50;5.45;;;;;;;23.22;54.57;93256.75;4715082;30;20399;-94
2022/06/27 05:29:50;;;;;;;14.68;6.20;;;;;;;23.30;54.03;93258.81;4734003;30;20067;-92
2022/06/27 05:32:24;;;;;;;23.52;8.00;;;;;;;23.31;55.60;93255.50;4709637;30;20036;-92
2022/06/27 05:34:49;;;;;;;9.52;4.55;;;;;;;23.34;55.93;93262.69;4718399;30;20495;-91
2022/06/27 05:37:15;;;;;;;13.85;4.32;;;;;;;23.32;55.79;93256.97;4706383;30;20093;-95
2022/06/27 05:39:45;;;;;;;13.70;5.15;;;;;;;23.31;55.33;93268.56;4703456;30;20045;-92
2022/06/27 05:42:10;;;;;;;7.63;5.57;;;;;;;23.35;54.81;93261.41;4702907;30;20064;-94
2022/06/27 05:44:37;;;;;;;7.00;3.40;;;;;;;23.33;54.29;93266.00;4702119;30;20150;-92
2022/06/27 05:47:03;;;;;;;8.82;3.53;;;;;;;23.32;53.99;93268.00;4721942;30;20400;-92
2022/06/27 05:49:28;;;;;;;7.32;3.65;;;;;;;23.31;54.06;93269.28;4762250;24;20095;-95
2022/06/27 05:52:00;;;;;;;7.88;3.80;;;;;;;23.32;54.51;93264.53;4766114;30;20349;-96
2022/06/27 05:54:26;;;;;;;8.98;4.90;;;;;;;23.36;54.84;93259.38;4767647;30;20079;-91
2022/06/27 05:56:52;;;;;;;18.52;6.68;;;;;;;23.43;54.19;93270.44;4745453;30;20535;-94
2022/06/27 05:59:18;;;;;;;19.25;5.50;;;;;;;23.41;54.95;93277.78;4758562;30;20512;-92
2022/06/27 06:01:51;;;;;;;13.85;7.47;;;;;;;23.37;54.94;93269.88;4763656;30;20115;-93
2022/06/27 06:04:17;;;;;;;11.02;7.38;;;;;;;23.45;54.90;93265.09;4766707;30;20071;-89
2022/06/27 06:06:43;;;;;;;12.15;6.78;;;;;;;23.46;56.39;93272.09;4744577;30;20055;-93
2022/06/27 06:09:11;;;;;;;16.23;10.57;;;;;;;23.47;55.66;93276.31;4755540;30;20027;-91
2022/06/27 06:11:38;;;;;;;15.32;7.40;;;;;;;23.50;55.35;93269.72;4751643;30;20039;-94
2022/06/27 06:14:04;;;;;;;11.77;6.70;;;;;;;23.57;55.23;93273.81;4749144;30;20020;-92
2022/06/27 06:16:30;;;;;;;13.07;8.80;;;;;;;23.63;55.36;93273.63;4764663;30;20074;-88
2022/06/27 06:18:57;;;;;;;19.73;6.75;;;;;;;23.54;55.14;93278.41;4755888;30;20115;-91
2022/06/27 06:21:23;;;;;;;12.02;6.53;;;;;;;23.61;54.80;93287.22;4751791;30;20040;-89
2022/06/27 06:23:49;;;;;;;12.48;7.57;;;;;;;23.66;54.61;93291.84;4759334;30;20045;-89
2022/06/27 06:26:19;;;;;;;25.73;17.52;;;;;;;23.74;54.54;93296.13;4751069;30;20281;-92
2022/06/27 06:28:45;;;;;;;31.92;20.60;;;;;;;23.76;54.26;93296.31;4764937;30;20092;-92
2022/06/27 06:31:14;;;;;;;23.08;10.23;;;;;;;23.87;54.06;93290.44;4746132;30;20048;-91
2022/06/27 06:33:40;;;;;;;14.93;6.43;;;;;;;23.89;53.34;93281.59;4750211;30;20039;-90
2022/06/27 06:36:07;;;;;;;13.20;6.60;;;;;;;23.89;53.37;93282.34;4746193;30;20032;-91
2022/06/27 06:38:33;;;;;;;21.98;9.00;;;;;;;23.89;53.92;93287.13;4752495;30;20032;-92
2022/06/27 06:40:58;;;;;;;10.60;6.68;;;;;;;23.88;53.76;93280.84;4760051;30;20522;-93
2022/06/27 06:43:24;;;;;;;12.30;6.20;;;;;;;23.92;53.54;93283.25;4739789;30;20042;-93
2022/06/27 06:45:50;;;;;;;16.10;6.75;;;;;;;24.01;53.51;93277.22;4768694;30;20036;-92
2022/06/27 06:48:17;;;;;;;22.58;7.20;;;;;;;24.04;54.33;93283.63;4772004;30;20064;-92
2022/06/27 06:50:43;;;;;;;26.58;8.13;;;;;;;24.11;53.98;93289.16;4741883;30;20046;-93
2022/06/27 06:53:09;;;;;;;17.70;6.40;;;;;;;24.13;54.39;93291.38;4751801;30;20039;-94
2022/06/27 06:55:35;;;;;;;13.18;6.70;;;;;;;24.13;53.82;93291.38;4733795;30;20043;-94
2022/06/27 06:58:01;;;;;;;10.18;5.78;;;;;;;24.18;54.06;93296.00;4745599;30;20110;-91
2022/06/27 07:00:27;;;;;;;24.13;8.35;;;;;;;24.19;54.31;93291.94;4754721;30;20057;-91
2022/06/27 07:02:53;;;;;;;21.27;9.02;;;;;;;24.21;53.38;93301.16;4735531;30;20069;-93
2022/06/27 07:05:19;;;;;;;14.88;6.53;;;;;;;24.19;53.55;93289.91;4747161;30;20046;-93
2022/06/27 07:07:44;;;;;;;11.63;6.03;;;;;;;24.17;53.97;93284.19;4752707;30;20035;-91
2022/06/27 07:10:11;;;;;;;54.13;31.88;;;;;;;24.13;53.88;93288.63;4749704;30;20036;-95
2022/06/27 07:12:36;;;;;;;17.67;9.27;;;;;;;24.20;53.94;93296.19;4754198;30;20084;-95
2022/06/27 07:15:05;;;;;;;43.05;10.77;;;;;;;24.21;54.04;93294.88;4740446;30;20024;-94
2022/06/27 07:17:47;;;;;;;21.45;6.85;;;;;;;24.23;53.88;93290.28;4755998;30;20374;-90
2022/06/27 07:20:19;;;;;;;20.35;7.95;;;;;;;24.29;54.05;93290.13;4754616;30;20046;-95
2022/06/27 07:22:48;;;;;;;18.30;7.30;;;;;;;24.32;53.64;93288.28;4753275;30;20050;-92
2022/06/27 07:25:14;;;;;;;13.95;7.18;;;;;;;24.33;54.08;93287.72;4747651;30;20023;-92
2022/06/27 07:27:40;;;;;;;18.67;7.03;;;;;;;24.35;54.16;93289.94;4739010;30;20043;-93
2022/06/27 07:30:09;;;;;;;18.45;8.27;;;;;;;24.46;53.50;93297.88;4738109;30;20166;-89
2022/06/27 07:32:35;;;;;;;10.82;5.50;;;;;;;24.46;52.69;93297.88;4734923;30;20032;-93
2022/06/27 07:35:01;;;;;;;14.88;7.30;;;;;;;24.44;53.23;93289.41;4756153;30;20061;-92
2022/06/27 07:37:27;;;;;;;24.20;10.48;;;;;;;24.53;53.26;93288.81;4752006;30;20121;-93
2022/06/27 07:39:53;;;;;;;40.95;13.65;;;;;;;24.53;53.40;93286.06;4723518;30;20031;-91
2022/06/27 07:42:19;;;;;;;44.40;13.13;;;;;;;24.54;52.65;93298.59;4737280;30;20043;-90
2022/06/27 07:44:45;;;;;;;18.63;6.70;;;;;;;24.54;53.35;93304.84;4751490;30;20048;-90
2022/06/27 07:47:10;;;;;;;14.38;7.28;;;;;;;24.53;53.44;93305.41;4755896;30;20253;-92
2022/06/27 07:49:38;;;;;;;21.42;9.35;;;;;;;24.54;52.83;93315.16;4768831;30;20066;-94
2022/06/27 07:52:04;;;;;;;25.13;11.40;;;;;;;24.52;53.07;93306.69;4737367;30;20040;-92
2022/06/27 07:54:29;;;;;;;27.73;10.57;;;;;;;24.53;52.91;93308.91;4719116;30;20482;-92
2022/06/27 07:56:55;;;;;;;38.88;16.10;;;;;;;24.63;52.83;93308.34;4736498;30;20135;-92
2022/06/27 07:59:21;;;;;;;26.25;12.55;;;;;;;24.57;53.23;93303.75;4717937;30;20731;-92
2022/06/27 08:01:46;;;;;;;15.70;6.53;;;;;;;24.66;52.78;93313.50;4710140;30;20064;-92
2022/06/27 08:04:14;;;;;;;65.50;17.38;;;;;;;24.79;52.80;93309.78;4702415;30;20064;-93
2022/06/27 08:06:41;;;;;;;47.72;11.75;;;;;;;24.79;53.04;93309.78;4733772;30;20071;-93
2022/06/27 08:09:07;;;;;;;44.10;12.55;;;;;;;24.85;51.69;93311.09;4718551;30;20029;-95
2022/06/27 08:11:33;;;;;;;32.20;10.00;;;;;;;24.78;52.24;93305.56;4720625;30;20049;-94
2022/06/27 08:14:03;;;;;;;88.20;14.80;;;;;;;24.84;51.79;93309.59;4756241;30;20043;-93
2022/06/27 08:16:29;;;;;;;33.13;14.18;;;;;;;24.78;52.13;93306.28;4721300;30;20047;-90
2022/06/27 08:18:55;;;;;;;34.58;11.45;;;;;;;24.80;53.06;93305.75;4747232;30;20035;-91
2022/06/27 08:21:23;;;;;;;77.88;20.08;;;;;;;24.78;52.68;93317.34;4740037;30;20035;-93
2022/06/27 08:23:51;;;;;;;68.20;19.05;;;;;;;24.72;53.23;93319.56;4764608;24;20071;-94
2022/06/27 08:26:17;;;;;;;48.83;15.63;;;;;;;24.73;52.74;93323.06;4785165;29;20130;-91
2022/06/27 08:28:44;;;;;;;38.33;12.18;;;;;;;24.69;52.83;93325.47;4771103;29;20748;-90
2022/06/27 08:31:12;;;;;;;49.85;15.88;;;;;;;24.64;53.01;93324.38;4776363;24;20051;-90
2022/06/27 08:33:44;;;;;;;44.55;17.95;;;;;;;24.62;53.19;93324.19;4768466;24;20056;-91
2022/06/27 08:36:15;;;;;;;43.90;22.45;;;;;;;24.59;53.27;93325.31;4710964;30;20048;-94
2022/06/27 08:38:50;;;;;;;36.15;17.00;;;;;;;24.57;53.51;93330.66;4728706;30;20214;-93
2022/06/27 08:41:19;;;;;;;27.45;16.88;;;;;;;24.57;53.47;93325.84;4709033;30;20041;-94
2022/06/27 08:44:09;;;;;;;44.35;29.33;;;;;;;24.58;53.42;93332.13;4729361;30;20080;-90
2022/06/27 08:46:34;;;;;;;72.05;30.33;;;;;;;24.59;53.34;93328.06;4784948;24;20504;-94
2022/06/27 08:49:00;;;;;;;76.97;32.60;;;;;;;24.63;53.13;93320.16;4783326;30;20039;-90
2022/06/27 08:51:26;;;;;;;45.97;23.13;;;;;;;24.58;53.19;93316.28;4786210;30;20035;-92
2022/06/27 08:53:59;;;;;;;156.20;37.75;;;;;;;24.60;52.87;93319.22;4772878;24;20051;-91
2022/06/27 08:56:25;;;;;;;87.57;28.42;;;;;;;24.60;53.01;93316.47;4783459;30;20054;-93
2022/06/27 08:58:52;;;;;;;168.10;40.78;;;;;;;24.63;52.81;93316.66;4756819;30;20024;-89
2022/06/27 09:01:21;;;;;;;120.55;31.88;;;;;;;24.59;52.88;93325.31;4765859;30;20044;-92
2022/06/27 09:04:04;;;;;;;86.97;25.35;;;;;;;24.56;52.91;93324.38;4741055;24;20056;-91
2022/06/27 09:06:43;;;;;;;53.58;22.58;;;;;;;24.56;52.81;93318.13;4733422;30;20204;-95
2022/06/27 09:09:15;;;;;;;34.35;13.77;;;;;;;24.67;51.63;93312.22;4770406;30;20074;-91
2022/06/27 09:11:42;;;;;;;88.43;31.45;;;;;;;24.75;52.01;93320.50;4734751;30;20493;-91
2022/06/27 09:14:37;;;;;;;73.97;30.42;;;;;;;24.67;52.22;93320.50;4751210;30;20059;-94
2022/06/27 09:17:09;;;;;;;92.38;37.13;;;;;;;24.73;52.08;93328.59;4735767;30;20035;-90
2022/06/27 09:19:50;;;;;;;80.32;27.38;;;;;;;24.66;52.20;93327.34;4723465;30;20032;-93
2022/06/27 09:22:17;;;;;;;54.65;21.45;;;;;;;24.70;52.09;93330.44;4747604;30;20028;-87
2022/06/27 09:25:04;;;;;;;58.20;25.25;;;;;;;24.63;52.44;93316.66;4758525;30;20046;-93
2022/06/27 09:27:50;;;;;;;46.05;22.30;;;;;;;24.61;52.11;93325.47;4756785;30;20039;-91
2022/06/27 09:30:18;;;;;;;48.08;19.55;;;;;;;24.65;52.42;93325.84;4741573;30;20046;-91
2022/06/27 09:32:45;;;;;;;44.65;19.67;;;;;;;24.64;52.24;93316.09;4760637;30;20051;-93
2022/06/27 09:35:29;;;;;;;32.88;17.67;;;;;;;24.65;52.29;93320.31;4774583;24;20040;-91
2022/06/27 09:37:56;;;;;;;30.52;13.45;;;;;;;24.68;51.98;93305.41;4770960;30;20035;-94
2022/06/27 09:40:25;;;;;;;27.42;15.30;;;;;;;24.68;51.93;93312.97;4724120;30;20047;-91
2022/06/27 09:42:57;;;;;;;30.90;14.77;;;;;;;24.68;51.73;93305.41;4748998;30;20032;-90
2022/06/27 09:45:24;;;;;;;23.88;14.43;;;;;;;24.72;51.70;93316.06;4766586;30;20127;-92
2022/06/27 09:47:54;;;;;;;25.27;12.88;;;;;;;24.79;51.27;93313.28;4739789;30;20150;-89
2022/06/27 09:50:19;;;;;;;18.15;10.18;;;;;;;24.80;51.12;93312.00;4752986;30;20092;-92
2022/06/27 09:52:45;;;;;;;22.15;11.40;;;;;;;24.76;51.21;93308.88;4749896;30;20047;-90
2022/06/27 09:55:10;;;;;;;15.05;9.15;;;;;;;24.78;51.01;93306.28;4752047;30;20444;-90
2022/06/27 09:57:36;;;;;;;23.95;11.48;;;;;;;24.76;51.09;93311.63;4767674;30;20059;-90
2022/06/27 10:00:03;;;;;;;22.40;12.18;;;;;;;24.80;51.16;93316.81;4776122;30;20032;-86
2022/06/27 10:02:30;;;;;;;45.35;14.27;;;;;;;24.89;51.12;93311.44;4789343;24;20064;-88
2022/06/27 10:04:56;;;;;;;39.53;13.10;;;;;;;24.89;50.57;93314.22;4791834;30;20047;-86
2022/06/27 10:07:21;;;;;;;27.88;10.38;;;;;;;24.94;50.46;93309.75;4747594;30;20121;-85
2022/06/27 10:09:51;;;;;;;28.48;10.85;;;;;;;24.93;50.43;93317.31;4790433;29;20518;-86
2022/06/27 10:12:26;;;;;;;24.58;9.35;;;;;;;24.94;50.51;93315.28;4765970;24;20146;-89
2022/06/27 10:15:10;;;;;;;41.67;28.92;;;;;;;24.93;50.72;93311.06;4772707;30;20097;-87
2022/06/27 10:17:41;;;;;;;80.72;64.53;;;;;;;24.98;50.78;93315.69;4764044;30;20038;-86
2022/06/27 10:20:08;;;;;;;22.80;12.63;;;;;;;24.99;50.72;93308.84;4781380;30;20045;-88
2022/06/27 10:22:33;;;;;;;47.67;42.28;;;;;;;25.04;51.18;93313.47;4763839;30;20059;-87
2022/06/27 10:25:24;;;;;;;41.13;34.30;;;;;;;25.05;50.78;93312.16;4761805;30;20305;-88
2022/06/27 10:27:49;;;;;;;20.55;16.20;;;;;;;25.09;51.03;93315.31;4773972;30;20307;-93
2022/06/27 10:30:52;;;;;;;13.80;9.95;;;;;;;25.04;51.64;93324.53;4763275;29;20043;-88
2022/06/27 10:33:21;;;;;;;18.13;13.52;;;;;;;25.10;52.04;93313.28;4770458;30;20040;-87
2022/06/27 10:36:02;;;;;;;28.08;25.08;;;;;;;25.05;52.08;93325.25;4787214;30;20048;-93
2022/06/27 10:38:38;;;;;;;23.08;20.58;;;;;;;25.10;52.25;93316.03;4772704;30;20038;-88
2022/06/27 10:41:06;;;;;;;492.67;439.85;;;;;;;25.08;52.38;93307.56;4771360;30;20020;-88
2022/06/27 10:43:43;;;;;;;61.00;51.58;;;;;;;25.06;52.75;93299.81;4752050;30;20043;-89
2022/06/27 10:46:11;;;;;;;32.97;20.40;;;;;;;25.15;53.15;93306.78;4753529;30;20136;-88
2022/06/27 10:48:36;;;;;;;19.98;9.98;;;;;;;25.27;52.54;93310.63;4774814;30;20515;-87
2022/06/27 10:51:22;;;;;;;28.58;16.02;;;;;;;25.20;52.42;93303.81;4778411;30;20051;-86
2022/06/27 10:54:06;;;;;;;51.35;24.30;;;;;;;25.17;52.45;93309.72;4776580;30;20054;-88
2022/06/27 10:56:35;;;;;;;32.30;17.92;;;;;;;25.17;52.62;93307.69;4798163;24;20146;-91
2022/06/27 10:59:01;;;;;;;52.53;21.15;;;;;;;25.15;52.85;93298.47;4760366;30;20031;-91
2022/06/27 11:01:27;;;;;;;77.30;36.88;;;;;;;25.19;52.91;93298.84;4792582;29;20104;-89
2022/06/27 11:03:52;;;;;;;66.03;29.23;;;;;;;25.17;52.75;93296.63;4765950;30;20441;-89
2022/06/27 11:06:18;;;;;;;60.92;21.90;;;;;;;25.16;52.60;93297.19;4755725;30;20023;-89
2022/06/27 11:08:46;;;;;;;148.80;84.25;;;;;;;25.16;52.80;93297.19;4775732;30;20031;-89
2022/06/27 11:11:17;;;;;;;131.68;49.22;;;;;;;25.10;53.06;93291.88;4744160;30;20035;-88
2022/06/27 11:13:54;;;;;;;222.07;122.53;;;;;;;25.12;52.94;93296.81;4794841;30;20046;-89
2022/06/27 11:16:22;;;;;;;167.80;91.72;;;;;;;25.16;52.90;93289.63;4795394;29;20047;-87
2022/06/27 11:18:54;;;;;;;155.35;92.93;;;;;;;25.17;53.23;93293.88;4785110;30;20039;-92
2022/06/27 11:21:21;;;;;;;168.18;92.90;;;;;;;25.21;53.28;93299.03;4758138;30;20035;-93
2022/06/27 11:23:49;;;;;;;128.13;63.83;;;;;;;25.21;53.19;93299.75;4750031;30;20132;-88
2022/06/27 11:26:15;;;;;;;90.70;50.25;;;;;;;25.29;52.98;93285.91;4767546;30;20035;-88
2022/06/27 11:34:09;;;;;;;53.25;28.13;;;;;;;25.52;52.71;93294.13;4794801;30;20103;-87
2022/06/27 11:36:36;;;;;;;105.03;51.95;;;;;;;25.60;53.07;93286.50;4765122;30;20039;-88
2022/06/27 11:39:01;;;;;;;99.15;47.08;;;;;;;25.61;52.24;93294.22;4797094;30;20123;-90
2022/06/27 11:41:28;;;;;;;142.32;68.68;;;;;;;25.46;52.85;93294.31;4794742;29;20030;-91
2022/06/27 11:44:10;;;;;;;172.88;70.45;;;;;;;25.38;53.06;93281.78;4782078;29;20039;-89
2022/06/27 11:46:46;;;;;;;237.60;111.00;;;;;;;25.31;53.15;93277.03;4812607;29;20145;-88
2022/06/27 11:49:12;;;;;;;157.57;77.75;;;;;;;25.30;53.12;93290.16;4776286;30;20035;-95
2022/06/27 11:51:38;;;;;;;226.95;104.22;;;;;;;25.24;53.47;93282.03;4798492;29;20074;-91
2022/06/27 11:54:06;;;;;;;149.55;78.03;;;;;;;25.23;53.83;93272.28;4769670;30;20051;-89
2022/06/27 11:56:32;;;;;;;252.98;89.45;;;;;;;25.21;53.76;93279.66;4785066;30;20403;-87